createdAt,value
2019-01-23T00:00:44.653Z,8.23
2019-01-23T00:06:40.735Z,8.33
2019-01-23T00:09:10.695Z,6.60
2019-01-23T00:11:59.855Z,9.57
2019-01-23T00:14:29.771Z,12.03
2019-01-23T00:17:18.863Z,10.47
2019-01-23T00:20:08.034Z,9.60
2019-01-23T00:22:50.406Z,10.27
2019-01-23T00:25:32.705Z,12.23
2019-01-23T00:28:14.168Z,9.90
2019-01-23T00:30:44.110Z,10.73
2019-01-23T00:33:14.001Z,11.57
2019-01-23T00:36:03.164Z,11.30
2019-01-23T00:39:04.989Z,12.43
2019-01-23T00:41:46.358Z,9.67
2019-01-23T00:44:28.731Z,11.10
2019-01-23T00:47:10.405Z,11.83
2019-01-23T00:49:51.896Z,10.63
2019-01-23T00:52:34.151Z,8.87
2019-01-23T00:55:15.623Z,7.90
2019-01-23T00:57:57.971Z,6.87
2019-01-23T01:00:39.425Z,7.00
2019-01-23T01:03:19.596Z,6.60
2019-01-23T01:09:09.816Z,6.97
2019-01-23T01:11:51.733Z,7.60
2019-01-23T01:14:33.199Z,7.43
2019-01-23T01:17:14.943Z,7.50
2019-01-23T01:19:56.513Z,8.37
2019-01-23T01:22:38.428Z,8.63
2019-01-23T01:25:19.891Z,8.90
2019-01-23T01:28:02.305Z,9.60
2019-01-23T01:30:43.785Z,10.23
2019-01-23T01:33:23.965Z,9.43
2019-01-23T01:36:13.042Z,6.33
2019-01-23T01:39:02.220Z,6.73
2019-01-23T01:41:43.996Z,7.73
2019-01-23T01:44:25.505Z,6.93
2019-01-23T01:47:07.260Z,4.50
2019-01-23T01:49:48.908Z,7.03
2019-01-23T01:52:30.327Z,6.80
2019-01-23T01:55:11.853Z,5.80
2019-01-23T01:57:53.249Z,4.23
2019-01-23T02:00:34.878Z,7.80
2019-01-23T02:03:16.282Z,5.57
2019-01-23T02:05:57.741Z,4.63
2019-01-23T02:08:39.394Z,6.73
2019-01-23T02:11:21.440Z,4.93
2019-01-23T02:14:03.811Z,5.40
2019-01-23T02:16:46.052Z,4.93
2019-01-23T02:19:27.517Z,6.83
2019-01-23T02:22:08.933Z,4.87
2019-01-23T02:24:50.835Z,3.70
2019-01-23T02:27:32.775Z,8.43
2019-01-23T02:30:15.057Z,9.57
2019-01-23T02:32:56.483Z,6.50
2019-01-23T02:35:38.883Z,4.43
2019-01-23T02:38:19.089Z,5.00
2019-01-23T02:41:01.178Z,4.57
2019-01-23T02:46:39.389Z,7.70
2019-01-23T02:49:22.690Z,10.17
2019-01-23T02:52:04.976Z,6.50
2019-01-23T02:54:46.638Z,6.50
2019-01-23T02:57:28.152Z,8.67
2019-01-23T02:59:58.065Z,6.17
2019-01-23T03:05:36.421Z,5.10
2019-01-23T03:08:25.784Z,7.60
2019-01-23T03:14:22.196Z,8.30
2019-01-23T03:17:04.296Z,6.70
2019-01-23T03:19:46.826Z,6.90
2019-01-23T03:22:28.701Z,6.43
2019-01-23T03:25:10.931Z,7.30
2019-01-23T03:27:53.145Z,8.10
2019-01-23T03:30:35.499Z,9.60
2019-01-23T03:33:17.286Z,6.67
2019-01-23T03:35:59.584Z,10.13
2019-01-23T03:38:41.025Z,11.93
2019-01-23T03:41:22.627Z,9.87
2019-01-23T03:44:04.187Z,10.53
2019-01-23T03:46:46.477Z,7.07
2019-01-23T03:49:30.849Z,9.10
2019-01-23T03:52:12.966Z,11.17
2019-01-23T03:54:55.009Z,10.97
2019-01-23T03:57:36.720Z,10.13
2019-01-23T04:00:18.584Z,9.60
2019-01-23T04:03:28.367Z,9.70
2019-01-23T04:06:17.520Z,10.40
2019-01-23T04:09:19.059Z,10.20
2019-01-23T04:12:00.737Z,10.03
2019-01-23T04:14:42.617Z,8.10
2019-01-23T04:17:24.319Z,7.30
2019-01-23T04:20:06.573Z,10.53
2019-01-23T04:22:48.372Z,9.33
2019-01-23T04:25:30.562Z,7.77
2019-01-23T04:28:12.832Z,9.23
2019-01-23T04:30:42.793Z,9.77
2019-01-23T04:33:51.401Z,9.47
2019-01-23T04:36:21.343Z,8.43
2019-01-23T04:39:10.439Z,11.03
2019-01-23T04:42:18.956Z,9.00
2019-01-23T04:45:00.746Z,11.80
2019-01-23T04:47:42.203Z,12.07
2019-01-23T04:50:23.739Z,10.20
2019-01-23T04:53:12.718Z,8.97
2019-01-23T04:59:14.576Z,9.87
2019-01-23T05:01:56.909Z,9.53
2019-01-23T05:04:38.343Z,8.00
2019-01-23T05:07:19.773Z,10.77
2019-01-23T05:10:02.137Z,11.40
2019-01-23T05:12:32.131Z,10.37
2019-01-23T05:15:21.318Z,13.27
2019-01-23T05:18:10.512Z,10.47
2019-01-23T05:20:52.053Z,11.60
2019-01-23T05:23:34.422Z,11.97
2019-01-23T05:26:16.648Z,10.97
2019-01-23T05:28:59.032Z,10.70
2019-01-23T05:31:40.716Z,11.60
2019-01-23T05:34:22.243Z,10.87
2019-01-23T05:37:04.524Z,12.67
2019-01-23T05:39:45.888Z,14.47
2019-01-23T05:42:15.868Z,14.17
2019-01-23T05:45:05.330Z,14.00
2019-01-23T05:47:54.489Z,14.03
2019-01-23T05:50:36.242Z,9.53
2019-01-23T05:53:18.106Z,10.47
2019-01-23T05:55:59.623Z,8.87
2019-01-23T05:58:41.316Z,8.23
2019-01-23T06:01:23.113Z,7.53
2019-01-23T06:04:05.026Z,12.80
2019-01-23T06:06:47.231Z,15.83
2019-01-23T06:09:17.270Z,12.47
2019-01-23T06:12:03.417Z,11.37
2019-01-23T06:14:45.054Z,13.80
2019-01-23T06:17:26.684Z,14.17
2019-01-23T06:20:08.229Z,13.40
2019-01-23T06:22:49.605Z,10.73
2019-01-23T06:25:31.099Z,14.37
2019-01-23T06:28:13.016Z,13.03
2019-01-23T06:30:55.317Z,10.77
2019-01-23T06:33:36.777Z,10.33
2019-01-23T06:36:18.812Z,12.50
2019-01-23T06:39:00.284Z,10.53
2019-01-23T06:41:42.346Z,11.40
2019-01-23T06:44:24.316Z,12.93
2019-01-23T06:47:06.551Z,10.17
2019-01-23T06:49:36.631Z,12.82
2019-01-23T06:52:26.050Z,12.63
2019-01-23T06:55:08.330Z,9.57
2019-01-23T06:57:50.343Z,13.20
2019-01-23T07:00:32.866Z,9.73
2019-01-23T07:03:17.938Z,8.17
2019-01-23T07:05:58.252Z,13.07
2019-01-23T07:08:47.527Z,10.17
2019-01-23T07:11:17.599Z,9.23
2019-01-23T07:13:47.724Z,10.43
2019-01-23T07:16:37.317Z,9.23
2019-01-23T07:19:26.541Z,11.28
2019-01-23T07:22:08.381Z,10.60
2019-01-23T07:24:50.605Z,14.83
2019-01-23T07:27:20.588Z,13.33
2019-01-23T07:30:32.586Z,13.73
2019-01-23T07:33:02.730Z,13.47
2019-01-23T07:35:32.801Z,14.80
2019-01-23T07:38:02.871Z,12.67
2019-01-23T07:40:33.072Z,15.05
2019-01-23T07:43:03.109Z,12.47
2019-01-23T07:45:33.201Z,15.45
2019-01-23T07:48:03.238Z,11.50
2019-01-23T07:50:33.319Z,10.50
2019-01-23T07:53:03.469Z,10.10
2019-01-23T07:55:33.536Z,12.03
2019-01-23T07:58:03.620Z,10.50
2019-01-23T08:00:33.706Z,9.20
2019-01-23T08:03:04.039Z,6.70
2019-01-23T08:05:34.099Z,9.65
2019-01-23T08:08:04.120Z,8.90
2019-01-23T08:10:34.188Z,8.13
2019-01-23T08:13:04.341Z,9.00
2019-01-23T08:15:35.869Z,8.23
2019-01-23T08:18:06.416Z,8.60
2019-01-23T08:20:36.473Z,11.47
2019-01-23T08:23:06.453Z,8.63
2019-01-23T08:25:36.432Z,8.20
2019-01-23T08:28:06.454Z,8.47
2019-01-23T08:30:39.224Z,6.77
2019-01-23T08:33:08.560Z,8.27
2019-01-23T08:35:38.646Z,11.13
2019-01-23T08:38:08.667Z,7.23
2019-01-23T08:40:38.732Z,15.23
2019-01-23T08:43:08.805Z,9.67
2019-01-23T08:45:38.864Z,13.17
2019-01-23T08:48:08.853Z,14.37
2019-01-23T08:50:43.932Z,12.77
2019-01-23T08:53:14.418Z,14.93
2019-01-23T08:55:44.475Z,16.80
2019-01-23T08:58:14.586Z,16.57
2019-01-23T09:00:45.929Z,14.87
2019-01-23T09:03:16.281Z,17.73
2019-01-23T09:05:46.254Z,14.13
2019-01-23T09:08:16.275Z,15.53
2019-01-23T09:10:46.640Z,12.77
2019-01-23T09:13:16.680Z,11.80
2019-01-23T09:15:46.736Z,14.13
2019-01-23T09:18:16.760Z,15.80
2019-01-23T09:20:46.742Z,13.00
2019-01-23T09:23:16.687Z,11.77
2019-01-23T09:25:50.051Z,12.67
2019-01-23T09:28:18.393Z,11.33
2019-01-23T09:30:54.658Z,12.20
2019-01-23T09:34:03.241Z,16.40
2019-01-23T09:37:09.974Z,18.63
2019-01-23T09:40:05.924Z,15.50
2019-01-23T09:43:13.748Z,13.70
2019-01-23T09:46:14.884Z,12.90
2019-01-23T09:49:44.307Z,14.87
2019-01-23T09:52:52.655Z,14.47
2019-01-23T09:55:22.708Z,14.37
2019-01-23T09:57:55.615Z,15.03
2019-01-23T10:00:31.953Z,14.80
2019-01-23T10:03:00.377Z,13.63
2019-01-23T10:05:30.359Z,11.07
2019-01-23T10:08:00.380Z,11.37
2019-01-23T10:10:30.471Z,13.30
2019-01-23T10:13:00.500Z,13.90
2019-01-23T10:15:57.579Z,11.03
2019-01-23T10:18:27.603Z,10.10
2019-01-23T10:20:57.883Z,12.77
2019-01-23T10:23:27.896Z,12.30
2019-01-23T10:25:57.886Z,9.47
2019-01-23T10:28:27.748Z,13.37
2019-01-23T10:30:57.799Z,10.47
2019-01-23T10:33:27.656Z,13.93
2019-01-23T10:35:57.616Z,11.93
2019-01-23T10:38:27.552Z,12.27
2019-01-23T10:40:57.841Z,12.27
2019-01-23T10:43:27.864Z,18.53
2019-01-23T10:45:57.836Z,13.03
2019-01-23T10:48:27.852Z,11.33
2019-01-23T10:50:57.904Z,13.73
2019-01-23T10:53:27.844Z,15.87
2019-01-23T10:55:57.815Z,14.27
2019-01-23T10:58:27.756Z,18.50
2019-01-23T11:00:57.797Z,13.13
2019-01-23T11:03:27.812Z,11.43
2019-01-23T11:05:57.784Z,16.07
2019-01-23T11:08:27.868Z,16.33
2019-01-23T11:10:57.937Z,18.80
2019-01-23T11:13:27.888Z,17.93
2019-01-23T11:15:57.844Z,15.87
2019-01-23T11:18:27.921Z,18.80
2019-01-23T11:20:58.623Z,16.23
2019-01-23T11:23:28.584Z,14.53
2019-01-23T11:26:01.391Z,12.37
2019-01-23T11:28:31.349Z,19.83
2019-01-23T11:31:01.323Z,16.83
2019-01-23T11:33:31.256Z,18.27
2019-01-23T11:36:01.288Z,12.90
2019-01-23T11:38:31.299Z,11.83
2019-01-23T11:41:01.347Z,15.97
2019-01-23T11:43:31.356Z,21.00
2019-01-23T11:46:01.801Z,24.37
2019-01-23T11:48:31.731Z,20.03
2019-01-23T11:51:02.080Z,17.60
2019-01-23T11:53:32.027Z,20.27
2019-01-23T11:56:02.125Z,16.90
2019-01-23T11:58:32.212Z,18.40
2019-01-23T12:01:02.277Z,17.07
2019-01-23T12:03:32.291Z,17.00
2019-01-23T12:06:02.330Z,20.83
2019-01-23T12:08:32.271Z,16.53
2019-01-23T12:11:02.274Z,25.13
2019-01-23T12:13:32.315Z,22.63
2019-01-23T12:16:02.289Z,17.60
2019-01-23T12:18:32.231Z,22.80
2019-01-23T12:21:02.288Z,19.30
2019-01-23T12:23:32.296Z,20.07
2019-01-23T12:26:02.336Z,21.73
2019-01-23T12:28:32.202Z,19.87
2019-01-23T12:31:02.275Z,20.87
2019-01-23T12:33:32.295Z,22.47
2019-01-23T12:36:02.246Z,21.33
2019-01-23T12:38:32.298Z,21.73
2019-01-23T12:41:02.325Z,18.47
2019-01-23T12:43:32.399Z,18.47
2019-01-23T12:46:02.260Z,20.80
2019-01-23T12:48:32.237Z,17.37
2019-01-23T12:51:02.252Z,23.60
2019-01-23T12:53:32.296Z,20.43
2019-01-23T12:56:02.530Z,19.77
2019-01-23T12:58:32.571Z,20.60
2019-01-23T13:01:02.580Z,19.40
2019-01-23T13:03:32.620Z,20.30
2019-01-23T13:06:02.640Z,16.43
2019-01-23T13:08:32.596Z,18.00
2019-01-23T13:11:02.560Z,21.60
2019-01-23T13:13:32.524Z,19.03
2019-01-23T13:16:02.541Z,14.87
2019-01-23T13:18:32.590Z,14.97
2019-01-23T13:21:02.617Z,12.80
2019-01-23T13:23:32.584Z,19.23
2019-01-23T13:26:02.615Z,17.50
2019-01-23T13:28:33.515Z,16.40
2019-01-23T13:31:03.493Z,18.00
2019-01-23T13:33:34.582Z,19.77
2019-01-23T13:36:04.995Z,15.60
2019-01-23T13:38:35.029Z,17.50
2019-01-23T13:41:04.991Z,15.87
2019-01-23T13:43:34.999Z,15.83
2019-01-23T13:46:05.146Z,12.67
2019-01-23T13:48:35.154Z,17.47
2019-01-23T13:51:05.260Z,16.43
2019-01-23T13:53:35.310Z,19.23
2019-01-23T13:56:05.455Z,16.37
2019-01-23T13:58:41.554Z,17.37
2019-01-23T14:01:07.159Z,19.77
2019-01-23T14:03:37.104Z,21.83
2019-01-23T14:06:07.169Z,17.70
2019-01-23T14:08:37.424Z,18.00
2019-01-23T14:11:07.409Z,17.73
2019-01-23T14:13:37.371Z,19.37
2019-01-23T14:16:07.537Z,17.13
2019-01-23T14:18:37.513Z,18.67
2019-01-23T14:21:07.543Z,17.83
2019-01-23T14:23:37.730Z,16.90
2019-01-23T14:26:07.740Z,13.90
2019-01-23T14:28:37.632Z,16.57
2019-01-23T14:31:07.656Z,15.97
2019-01-23T14:33:37.624Z,19.47
2019-01-23T14:36:07.600Z,16.20
2019-01-23T14:38:39.161Z,20.50
2019-01-23T14:41:10.694Z,17.77
2019-01-23T14:43:41.585Z,16.30
2019-01-23T14:46:12.595Z,16.10
2019-01-23T14:48:45.810Z,16.63
2019-01-23T14:51:15.912Z,19.83
2019-01-23T14:53:45.892Z,21.27
2019-01-23T14:56:16.474Z,15.73
2019-01-23T14:58:46.431Z,14.60
2019-01-23T15:01:16.381Z,14.20
2019-01-23T15:03:46.420Z,15.30
2019-01-23T15:06:16.720Z,13.33
2019-01-23T15:08:47.368Z,15.53
2019-01-23T15:11:18.718Z,19.60
2019-01-23T15:13:48.925Z,22.10
2019-01-23T15:16:18.863Z,19.10
2019-01-23T15:18:51.141Z,15.27
2019-01-23T15:21:21.163Z,16.10
2019-01-23T15:23:51.237Z,12.93
2019-01-23T15:26:21.220Z,12.17
2019-01-23T15:28:51.473Z,16.47
2019-01-23T15:31:21.422Z,22.47
2019-01-23T15:33:51.422Z,16.97
2019-01-23T15:36:23.553Z,16.43
2019-01-23T15:38:53.561Z,18.37
2019-01-23T15:41:23.573Z,17.63
2019-01-23T15:43:54.246Z,21.00
2019-01-23T15:46:24.467Z,19.77
2019-01-23T15:48:54.480Z,17.67
2019-01-23T15:51:24.491Z,20.17
2019-01-23T15:53:54.972Z,17.30
2019-01-23T15:56:24.981Z,20.17
2019-01-23T15:58:55.250Z,15.93
2019-01-23T16:01:25.208Z,18.30
2019-01-23T16:03:55.409Z,18.13
2019-01-23T16:06:25.424Z,18.53
2019-01-23T16:08:55.617Z,18.53
2019-01-23T16:11:26.139Z,18.67
2019-01-23T16:13:56.477Z,15.90
2019-01-23T16:16:26.507Z,16.63
2019-01-23T16:18:56.616Z,19.47
2019-01-23T16:21:27.022Z,18.30
2019-01-23T16:23:57.164Z,19.50
2019-01-23T16:26:27.196Z,18.87
2019-01-23T16:28:57.256Z,18.00
2019-01-23T16:31:27.360Z,18.90
2019-01-23T16:33:57.454Z,18.97
2019-01-23T16:36:27.774Z,16.10
2019-01-23T16:38:57.987Z,15.37
2019-01-23T16:41:30.196Z,13.57
2019-01-23T16:44:00.466Z,20.73
2019-01-23T16:46:31.471Z,18.30
2019-01-23T16:49:02.626Z,18.83
2019-01-23T16:51:32.819Z,17.43
2019-01-23T16:54:02.982Z,12.63
2019-01-23T16:56:33.401Z,17.27
2019-01-23T16:59:07.206Z,17.63
2019-01-23T17:01:37.292Z,18.53
2019-01-23T17:04:07.371Z,11.50
2019-01-23T17:06:37.518Z,14.67
2019-01-23T17:09:10.089Z,16.00
2019-01-23T17:11:41.586Z,13.77
2019-01-23T17:14:11.743Z,15.10
2019-01-23T17:16:41.701Z,13.03
2019-01-23T17:19:11.818Z,13.20
2019-01-23T17:21:41.686Z,14.43
2019-01-23T17:24:11.780Z,11.73
2019-01-23T17:26:41.788Z,11.70
2019-01-23T17:29:11.739Z,14.50
2019-01-23T17:31:41.707Z,13.23
2019-01-23T17:34:11.824Z,15.13
2019-01-23T17:36:41.842Z,11.13
2019-01-23T17:39:12.151Z,11.97
2019-01-23T17:41:42.100Z,14.53
2019-01-23T17:44:12.380Z,9.87
2019-01-23T17:46:43.182Z,11.03
2019-01-23T17:49:13.583Z,9.20
2019-01-23T17:51:43.661Z,8.97
2019-01-23T17:54:13.792Z,9.37
2019-01-23T17:56:43.773Z,13.93
2019-01-23T17:59:13.872Z,12.80
2019-01-23T18:01:44.096Z,9.53
2019-01-23T18:04:14.157Z,10.10
2019-01-23T18:06:44.189Z,6.43
2019-01-23T18:09:14.190Z,9.33
2019-01-23T18:11:44.190Z,7.50
2019-01-23T18:14:14.286Z,13.10
2019-01-23T18:16:44.221Z,7.57
2019-01-23T18:19:14.275Z,10.97
2019-01-23T18:21:44.375Z,9.67
2019-01-23T18:24:14.389Z,6.50
2019-01-23T18:26:44.437Z,10.93
2019-01-23T18:29:14.510Z,9.13
2019-01-23T18:31:51.803Z,13.97
2019-01-23T18:35:12.090Z,10.60
2019-01-23T18:38:04.719Z,9.17
2019-01-23T18:40:58.618Z,13.60
2019-01-23T18:43:56.516Z,11.87
2019-01-23T18:47:04.841Z,19.83
2019-01-23T18:50:05.520Z,15.73
2019-01-23T18:52:35.546Z,17.50
2019-01-23T18:55:09.247Z,18.20
2019-01-23T18:57:39.271Z,21.77
2019-01-23T19:00:13.342Z,19.50
2019-01-23T19:02:44.084Z,17.87
2019-01-23T19:05:16.632Z,16.70
2019-01-23T19:07:46.734Z,20.23
2019-01-23T19:10:17.064Z,18.30
2019-01-23T19:12:47.129Z,18.47
2019-01-23T19:15:18.308Z,19.40
2019-01-23T19:17:48.404Z,18.90
2019-01-23T19:20:19.921Z,18.40
2019-01-23T19:22:49.922Z,14.47
2019-01-23T19:25:20.017Z,16.00
2019-01-23T19:27:51.040Z,18.70
2019-01-23T19:30:21.765Z,18.73
2019-01-23T19:32:51.945Z,19.30
2019-01-23T19:35:22.080Z,19.10
2019-01-23T19:37:52.111Z,15.90
2019-01-23T19:40:22.147Z,20.53
2019-01-23T19:42:52.168Z,20.13
2019-01-23T19:45:23.301Z,19.27
2019-01-23T19:47:53.428Z,18.60
2019-01-23T19:50:23.682Z,21.67
2019-01-23T19:52:53.669Z,19.70
2019-01-23T19:55:23.796Z,17.17
2019-01-23T19:57:53.728Z,19.00
2019-01-23T20:00:24.249Z,14.47
2019-01-23T20:02:54.279Z,19.83
2019-01-23T20:05:26.884Z,14.67
2019-01-23T20:07:56.916Z,14.93
2019-01-23T20:10:27.521Z,15.87
2019-01-23T20:12:57.558Z,22.73
2019-01-23T20:15:27.697Z,20.03
2019-01-23T20:18:06.100Z,16.87
2019-01-23T20:20:36.304Z,12.30
2019-01-23T20:23:06.348Z,16.00
2019-01-23T20:25:36.399Z,11.53
2019-01-23T20:28:13.825Z,14.90
2019-01-23T20:30:44.985Z,11.53
2019-01-23T20:33:15.024Z,14.57
2019-01-23T20:35:45.066Z,13.00
2019-01-23T20:38:14.945Z,20.00
2019-01-23T20:40:44.978Z,14.57
2019-01-23T20:43:15.060Z,17.67
2019-01-23T20:45:45.291Z,21.57
2019-01-23T20:48:15.311Z,21.20
2019-01-23T20:50:45.202Z,17.40
2019-01-23T20:53:15.394Z,23.03
2019-01-23T20:55:45.444Z,20.77
2019-01-23T20:58:15.925Z,19.20
2019-01-23T21:00:45.957Z,13.70
2019-01-23T21:03:16.055Z,20.17
2019-01-23T21:05:46.098Z,14.80
2019-01-23T21:08:16.182Z,17.17
2019-01-23T21:10:46.069Z,21.83
2019-01-23T21:13:16.060Z,20.97
2019-01-23T21:15:46.013Z,16.40
2019-01-23T21:18:15.993Z,20.63
2019-01-23T21:20:46.009Z,24.03
2019-01-23T21:23:16.792Z,21.87
2019-01-23T21:25:46.668Z,23.27
2019-01-23T21:28:16.640Z,19.33
2019-01-23T21:30:46.884Z,21.70
2019-01-23T21:33:16.804Z,20.30
2019-01-23T21:35:46.871Z,19.80
2019-01-23T21:38:16.931Z,20.40
2019-01-23T21:40:46.944Z,20.70
2019-01-23T21:43:16.963Z,17.47
2019-01-23T21:45:47.042Z,16.47
2019-01-23T21:48:17.024Z,21.90
2019-01-23T21:50:47.036Z,18.90
2019-01-23T21:53:17.008Z,13.03
2019-01-23T21:55:47.029Z,16.60
2019-01-23T21:58:17.158Z,18.43
2019-01-23T22:00:49.668Z,26.53
2019-01-23T22:03:19.768Z,22.83
2019-01-23T22:05:49.788Z,24.07
2019-01-23T22:08:19.768Z,20.13
2019-01-23T22:10:49.796Z,19.37
2019-01-23T22:13:19.757Z,23.40
2019-01-23T22:15:49.779Z,23.80
2019-01-23T22:18:19.857Z,19.77
2019-01-23T22:20:49.948Z,21.53
2019-01-23T22:23:20.005Z,21.67
2019-01-23T22:25:49.942Z,20.03
2019-01-23T22:28:20.231Z,20.20
2019-01-23T22:30:50.170Z,19.90
2019-01-23T22:33:20.238Z,18.80
2019-01-23T22:35:50.268Z,19.00
2019-01-23T22:38:20.317Z,17.00
2019-01-23T22:40:50.716Z,12.07
2019-01-23T22:43:20.760Z,14.97
2019-01-23T22:45:50.716Z,16.17
2019-01-23T22:48:20.753Z,10.97
2019-01-23T22:50:50.625Z,13.57
2019-01-23T22:53:20.597Z,15.37
2019-01-23T22:55:50.553Z,13.20
2019-01-23T22:58:20.596Z,13.07
2019-01-23T23:01:26.507Z,15.00
2019-01-23T23:04:02.923Z,19.83
2019-01-23T23:06:28.482Z,19.10
2019-01-23T23:08:58.532Z,18.03
2019-01-23T23:11:28.560Z,13.60
2019-01-23T23:13:58.609Z,11.20
2019-01-23T23:16:28.572Z,14.37
2019-01-23T23:18:58.558Z,17.10
2019-01-23T23:21:28.604Z,9.60
2019-01-23T23:23:58.588Z,12.60
2019-01-23T23:26:28.622Z,13.57
2019-01-23T23:28:58.602Z,12.93
2019-01-23T23:31:28.543Z,15.03
2019-01-23T23:34:10.838Z,18.00
2019-01-23T23:36:40.840Z,13.20
2019-01-23T23:39:29.932Z,17.70
2019-01-23T23:42:11.371Z,18.67
2019-01-23T23:44:53.624Z,12.97
2019-01-23T23:47:35.928Z,12.80
2019-01-23T23:53:49.635Z,16.30
2019-01-23T23:56:19.664Z,13.80
2019-01-23T23:58:49.577Z,15.83
